Time;durP1;ratioP1;P1;durP2;ratioP2;P2;SDS_P1;SDS_P2;PMS_P1;PMS_P2;Temp;Humidity;BMP_temperature;BMP_pressure;BME280_temperature;BME280_humidity;BME280_pressure;Samples;Min_cycle;Max_cycle;Signal;HPM_P1;HPM_P2
2022/08/13 00:04:26;;;;;;;1.80;1.70;;;;;;;20.26;50.67;97049.50;10448905;28;20053;-59
2022/08/13 00:09:45;;;;;;;2.97;1.85;;;;;;;20.25;50.62;97046.00;10465118;28;20083;-59
2022/08/13 00:15:16;;;;;;;1.88;1.77;;;;;;;20.25;50.62;97035.19;10455967;28;20049;-59
2022/08/13 00:20:38;;;;;;;2.00;1.90;;;;;;;20.25;50.63;97043.31;10459990;28;20049;-59
2022/08/13 00:25:58;;;;;;;3.42;1.90;;;;;;;20.24;50.63;97036.28;10462397;28;20154;-58
2022/08/13 00:31:17;;;;;;;2.38;1.80;;;;;;;20.26;50.56;97041.38;10470617;28;20057;-58
2022/08/13 00:36:36;;;;;;;1.90;1.73;;;;;;;20.24;50.54;97035.50;10465110;28;20049;-59
2022/08/13 00:41:56;;;;;;;2.20;1.67;;;;;;;20.23;50.44;97034.72;10482084;28;20053;-58
2022/08/13 00:52:54;;;;;;;;;;;;;;;20.24;50.30;97032.81;10442996;28;20048;-59
2022/08/13 00:58:16;;;;;;;1.80;1.70;;;;;;;20.23;50.67;97026.59;10454717;28;19928;-59
2022/08/13 01:03:37;;;;;;;1.92;1.63;;;;;;;20.23;50.51;97026.59;10467893;28;20500;-59
2022/08/13 01:08:56;;;;;;;1.95;1.83;;;;;;;20.22;50.52;97014.19;10475835;28;20041;-58
2022/08/13 01:14:16;;;;;;;2.20;1.88;;;;;;;20.23;50.34;97023.09;10461853;28;20045;-57
2022/08/13 01:19:36;;;;;;;2.10;1.85;;;;;;;20.20;50.36;97004.81;10481167;28;20063;-58
2022/08/13 01:24:55;;;;;;;1.90;1.75;;;;;;;20.20;50.23;97005.59;10462209;28;20056;-59
2022/08/13 01:30:16;;;;;;;1.98;1.80;;;;;;;20.19;50.44;97012.13;10460995;28;20394;-59
2022/08/13 01:35:36;;;;;;;1.92;1.83;;;;;;;20.19;50.27;97003.22;10465824;28;20492;-59
2022/08/13 01:40:56;;;;;;;2.65;1.88;;;;;;;20.17;50.24;97000.84;10460843;28;20057;-58
2022/08/13 01:46:16;;;;;;;1.98;1.88;;;;;;;20.16;50.20;96988.44;10472961;28;20044;-56
2022/08/13 01:51:36;;;;;;;1.98;1.88;;;;;;;20.16;50.15;96985.72;10460565;28;20057;-59
2022/08/13 01:56:57;;;;;;;2.00;1.90;;;;;;;20.14;50.15;96983.34;10460503;28;20056;-58
2022/08/13 02:02:17;;;;;;;2.05;1.92;;;;;;;20.14;50.15;96979.84;10452948;28;20055;-59
2022/08/13 02:07:38;;;;;;;2.63;2.20;;;;;;;20.13;50.09;96972.84;10481252;28;20493;-59
2022/08/13 02:12:58;;;;;;;2.35;2.00;;;;;;;20.14;50.19;96969.03;10489547;28;20427;-59
2022/08/13 02:18:20;;;;;;;2.25;2.05;;;;;;;20.12;50.23;96963.16;10484051;28;20045;-58
2022/08/13 02:23:40;;;;;;;1.98;1.88;;;;;;;20.12;50.24;96972.06;10486541;28;20060;-58
2022/08/13 02:29:00;;;;;;;2.40;1.95;;;;;;;20.10;50.28;96970.78;10480854;28;20044;-59
2022/08/13 02:34:20;;;;;;;2.22;2.00;;;;;;;20.09;50.30;96961.06;10485634;28;20052;-58
2022/08/13 02:39:40;;;;;;;2.05;1.85;;;;;;;20.09;50.29;96955.66;10452831;28;20049;-58
2022/08/13 02:44:59;;;;;;;2.40;2.00;;;;;;;20.09;50.36;96958.38;10464297;28;20049;-59
2022/08/13 02:50:20;;;;;;;2.20;2.00;;;;;;;20.09;50.34;96966.50;10509785;28;20496;-57
2022/08/13 02:55:41;;;;;;;2.33;1.90;;;;;;;20.10;50.31;96968.88;10496896;28;20056;-58
2022/08/13 03:01:02;;;;;;;2.03;1.92;;;;;;;20.11;50.24;96958.84;10486319;28;20602;-59
2022/08/13 03:06:22;;;;;;;2.20;2.00;;;;;;;20.10;50.11;96963.47;10496397;28;20055;-59
2022/08/13 03:11:42;;;;;;;2.75;2.20;;;;;;;20.09;50.10;96966.50;10496298;28;20053;-59
2022/08/13 03:17:01;;;;;;;2.17;1.90;;;;;;;20.09;49.99;96963.78;10509412;28;20496;-59
2022/08/13 03:22:21;;;;;;;2.70;2.25;;;;;;;20.07;50.05;96964.13;10495734;28;20057;-59
2022/08/13 03:27:40;;;;;;;2.00;1.90;;;;;;;20.07;49.99;96955.19;10508275;28;20036;-58
2022/08/13 03:33:13;;;;;;;2.17;1.98;;;;;;;20.05;50.02;96955.53;10486350;28;20056;-59
2022/08/13 03:38:33;;;;;;;3.08;2.20;;;;;;;20.05;49.98;96955.53;10451593;28;20049;-59
2022/08/13 03:43:53;;;;;;;3.13;2.30;;;;;;;20.04;49.86;96953.16;10470191;28;20116;-58
2022/08/13 03:49:13;;;;;;;4.95;2.58;;;;;;;20.04;49.86;96961.28;10468545;28;20091;-59
2022/08/13 03:54:33;;;;;;;2.50;2.30;;;;;;;20.03;49.73;96959.66;10469584;28;20049;-58
2022/08/13 03:59:52;;;;;;;2.40;2.20;;;;;;;20.01;49.87;96954.56;10456192;28;20405;-59
2022/08/13 04:05:16;;;;;;;3.05;2.40;;;;;;;20.01;49.92;96956.50;10459750;28;20049;-59
2022/08/13 04:10:37;;;;;;;2.38;2.20;;;;;;;20.01;49.94;96951.09;10455078;28;20103;-59
2022/08/13 04:15:56;;;;;;;2.70;2.50;;;;;;;20.00;49.99;96952.22;10455775;28;20041;-59
2022/08/13 04:21:17;;;;;;;2.58;2.38;;;;;;;19.99;50.01;96954.09;10482859;28;20392;-57
2022/08/13 04:26:37;;;;;;;3.22;2.60;;;;;;;20.00;50.04;96957.63;10456024;28;20064;-59
2022/08/13 04:31:57;;;;;;;3.08;2.78;;;;;;;19.99;50.01;96956.81;10455359;28;20053;-59
2022/08/13 04:37:16;;;;;;;3.03;2.70;;;;;;;19.99;50.12;96966.84;10450794;28;20052;-58
2022/08/13 04:42:46;;;;;;;3.15;2.85;;;;;;;19.97;50.32;96960.97;10473071;28;20041;-59
2022/08/13 04:48:09;;;;;;;3.20;2.90;;;;;;;19.97;50.45;96963.66;10488886;28;20464;-59
2022/08/13 04:53:34;;;;;;;3.05;2.67;;;;;;;19.97;50.98;96963.66;10469616;28;20060;-59
2022/08/13 04:58:54;;;;;;;3.28;2.70;;;;;;;19.97;50.88;96966.38;10462287;28;20064;-59
2022/08/13 05:04:15;;;;;;;3.08;2.50;;;;;;;19.98;50.83;96959.88;10464979;28;20049;-59
2022/08/13 05:09:34;;;;;;;4.20;2.60;;;;;;;19.98;51.36;96965.28;10463485;28;20057;-59
2022/08/13 05:14:53;;;;;;;3.67;3.10;;;;;;;19.93;51.97;96960.81;10463824;28;20102;-59
2022/08/13 05:20:15;;;;;;;5.75;3.17;;;;;;;19.88;52.25;96961.00;10460610;28;20496;-59
2022/08/13 05:25:35;;;;;;;3.22;3.03;;;;;;;19.84;52.35;96957.34;10456651;28;20091;-59
2022/08/13 05:30:54;;;;;;;3.85;3.22;;;;;;;19.73;53.69;96951.47;10475562;28;20040;-59
2022/08/13 05:36:13;;;;;;;3.90;3.60;;;;;;;19.67;53.37;96950.81;10488163;28;20048;-58
2022/08/13 05:41:33;;;;;;;3.75;3.42;;;;;;;19.62;53.70;96947.50;10460034;28;20059;-59
2022/08/13 05:46:53;;;;;;;3.63;3.33;;;;;;;19.64;54.13;96940.69;10500894;28;20399;-59
2022/08/13 05:52:12;;;;;;;4.18;3.20;;;;;;;19.60;53.50;96936.22;10493375;28;20086;-59
2022/08/13 05:57:32;;;;;;;4.63;3.50;;;;;;;19.62;53.30;96931.28;10471721;28;20041;-60
2022/08/13 06:08:31;;;;;;;3.50;3.20;;;;;;;19.66;54.03;96933.03;10472766;28;20094;-60
2022/08/13 06:13:51;;;;;;;3.97;3.60;;;;;;;19.64;53.64;96929.03;10479662;28;20295;-59
2022/08/13 06:19:12;;;;;;;3.28;3.08;;;;;;;19.65;54.29;96925.25;10459334;28;20045;-59
2022/08/13 06:24:35;;;;;;;3.58;3.10;;;;;;;19.63;53.90;96922.84;10469741;28;20094;-59
2022/08/13 06:29:57;;;;;;;6.15;3.70;;;;;;;19.62;53.75;96921.28;10451332;28;20061;-59
2022/08/13 06:35:17;;;;;;;3.47;3.13;;;;;;;19.69;53.50;96915.38;10458301;28;20075;-60
2022/08/13 06:40:36;;;;;;;3.63;3.05;;;;;;;19.74;53.46;96913.31;10479011;28;20071;-60
2022/08/13 06:45:59;;;;;;;3.95;2.80;;;;;;;19.79;53.41;96922.38;10479372;28;20542;-59
2022/08/13 06:51:20;;;;;;;4.22;3.00;;;;;;;19.83;53.32;96931.44;10469974;28;20468;-59
2022/08/13 06:56:39;;;;;;;3.22;2.83;;;;;;;19.85;53.32;96929.97;10483969;28;20049;-59
2022/08/13 07:02:00;;;;;;;4.28;3.08;;;;;;;19.86;53.44;96934.28;10457853;28;20064;-60
2022/08/13 07:07:20;;;;;;;5.80;3.20;;;;;;;19.87;53.48;96938.56;10460906;28;20055;-60
2022/08/13 07:12:42;;;;;;;5.90;3.05;;;;;;;19.90;53.81;96931.72;10442596;28;20139;-58
2022/08/13 07:18:02;;;;;;;3.80;3.22;;;;;;;19.91;54.00;96923.28;10471915;28;20078;-60
2022/08/13 07:23:21;;;;;;;6.75;3.90;;;;;;;19.91;54.49;96928.69;10462355;28;20072;-60
2022/08/13 07:28:41;;;;;;;4.32;3.80;;;;;;;19.91;54.74;96933.31;10445660;28;20392;-57
2022/08/13 07:34:04;;;;;;;5.75;3.67;;;;;;;19.92;54.68;96930.28;10457200;28;20057;-61
2022/08/13 07:39:23;;;;;;;4.78;4.20;;;;;;;19.93;54.95;96925.66;10459948;28;20869;-59
2022/08/13 07:44:48;;;;;;;5.00;3.70;;;;;;;19.93;55.17;96917.56;10443587;28;20053;-60
2022/08/13 07:50:10;;;;;;;5.60;3.60;;;;;;;19.95;55.16;96918.84;10456433;28;20060;-60
2022/08/13 07:55:29;;;;;;;4.72;3.67;;;;;;;19.94;55.31;96911.81;10466432;28;20048;-58
2022/08/13 08:00:49;;;;;;;5.75;4.28;;;;;;;19.95;55.85;96913.44;10455534;28;20049;-59
2022/08/13 08:06:18;;;;;;;4.78;4.38;;;;;;;19.98;56.08;96922.00;10459966;28;20052;-58
2022/08/13 08:17:16;;;;;;;6.68;4.65;;;;;;;19.99;56.43;96918.16;10472642;28;20045;-58
2022/08/13 08:22:36;;;;;;;6.43;4.82;;;;;;;19.99;56.74;96924.38;10484922;28;20078;-60
2022/08/13 08:27:56;;;;;;;5.93;4.30;;;;;;;20.01;57.05;96911.31;10504235;28;20052;-60
2022/08/13 08:33:18;;;;;;;5.15;4.55;;;;;;;20.01;56.80;96915.94;10489593;28;20057;-60
2022/08/13 08:44:32;;;;;;;6.43;4.40;;;;;;;20.03;57.34;96905.59;10490012;28;20075;-59
2022/08/13 08:49:54;;;;;;;9.70;4.68;;;;;;;20.04;57.58;96897.16;10479831;28;20049;-60
2022/08/13 08:55:15;;;;;;;6.53;4.78;;;;;;;20.06;57.86;96896.84;10483269;28;20488;-60
2022/08/13 09:00:39;;;;;;;9.32;4.93;;;;;;;20.07;58.01;96896.53;10498362;28;20041;-59
2022/08/13 09:06:00;;;;;;;5.22;4.72;;;;;;;20.10;58.24;96897.78;10473984;28;20056;-58
2022/08/13 09:11:19;;;;;;;9.88;5.38;;;;;;;20.10;58.49;96893.16;10485729;28;20110;-59
2022/08/13 09:16:40;;;;;;;7.40;5.25;;;;;;;20.12;58.62;96895.53;10485008;28;20056;-59
2022/08/13 09:21:59;;;;;;;7.45;5.05;;;;;;;20.13;58.49;96902.50;10452493;28;20057;-59
2022/08/13 09:27:19;;;;;;;10.13;5.63;;;;;;;20.14;58.73;96885.97;10474583;28;20053;-59
2022/08/13 09:32:38;;;;;;;6.32;5.57;;;;;;;20.15;58.87;96884.84;10461816;28;20056;-59
2022/08/13 09:37:59;;;;;;;483.25;127.88;;;;;;;20.18;59.08;96886.13;10473705;28;20396;-59
2022/08/13 09:43:21;;;;;;;242.13;96.70;;;;;;;20.20;59.21;96875.75;10446511;28;20052;-62
2022/08/13 09:48:41;;;;;;;107.32;44.15;;;;;;;20.21;58.89;96866.53;10478284;28;20041;-61
2022/08/13 09:54:05;;;;;;;35.33;16.65;;;;;;;20.23;58.91;96883.22;10460430;28;20071;-60
2022/08/13 09:59:25;;;;;;;14.70;9.98;;;;;;;20.24;58.39;96884.81;10473963;28;20492;-61
2022/08/13 10:04:45;;;;;;;10.32;7.70;;;;;;;20.26;58.44;96879.88;10463799;28;20444;-62
2022/08/13 10:10:04;;;;;;;11.77;8.30;;;;;;;20.29;58.13;96879.22;10474019;28;20488;-57
2022/08/13 10:15:24;;;;;;;8.48;7.53;;;;;;;20.32;57.92;96883.97;10459062;28;20053;-61
2022/08/13 10:20:45;;;;;;;15.43;8.52;;;;;;;20.34;58.00;96873.59;10459721;28;20115;-62
2022/08/13 10:26:05;;;;;;;8.32;7.47;;;;;;;20.34;58.07;96879.00;10457334;28;20037;-61
2022/08/13 10:31:27;;;;;;;11.55;8.45;;;;;;;20.37;58.46;96863.28;10497149;28;20056;-62
2022/08/13 10:36:49;;;;;;;10.00;8.48;;;;;;;20.39;58.64;96858.31;10489346;28;20052;-61
2022/08/13 10:42:08;;;;;;;9.52;8.43;;;;;;;20.40;58.86;96857.97;10467348;28;20057;-61
2022/08/13 10:47:27;;;;;;;8.48;7.63;;;;;;;20.45;59.02;96844.25;10462016;28;20049;-61
2022/08/13 10:52:47;;;;;;;10.93;8.55;;;;;;;20.45;58.83;96838.06;10497610;28;20052;-61
2022/08/13 10:58:11;;;;;;;12.65;8.38;;;;;;;20.45;58.86;96835.38;10493092;28;20045;-62
2022/08/13 11:03:33;;;;;;;9.15;8.18;;;;;;;20.44;59.09;96842.66;10510846;28;20042;-62
2022/08/13 11:08:54;;;;;;;8.80;7.97;;;;;;;20.42;59.26;96854.94;10471456;28;20106;-61
2022/08/13 11:14:16;;;;;;;12.32;7.53;;;;;;;20.43;59.46;96856.53;10490164;28;20037;-61
2022/08/13 11:19:38;;;;;;;8.65;7.65;;;;;;;20.41;59.54;96856.88;10470561;28;20054;-61
2022/08/13 11:25:01;;;;;;;8.52;7.72;;;;;;;20.42;59.50;96857.66;10487506;28;20123;-63
2022/08/13 11:30:21;;;;;;;7.80;7.00;;;;;;;20.42;59.24;96853.03;10476045;28;20040;-62
2022/08/13 11:35:43;;;;;;;7.80;7.10;;;;;;;20.43;59.18;96859.25;10487103;28;20068;-62
2022/08/13 11:41:02;;;;;;;7.78;7.07;;;;;;;20.44;59.23;96852.69;10470535;28;20566;-63
2022/08/13 11:46:21;;;;;;;7.53;6.82;;;;;;;20.45;58.99;96846.19;10470490;28;20048;-65
2022/08/13 11:51:41;;;;;;;7.22;6.63;;;;;;;20.48;58.97;96845.50;10491267;28;20041;-61
2022/08/13 11:57:03;;;;;;;7.18;6.47;;;;;;;20.48;58.85;96842.81;10466868;28;20063;-62
2022/08/13 12:02:22;;;;;;;7.15;6.45;;;;;;;20.49;58.83;96833.59;10460434;28;20037;-62
2022/08/13 12:07:41;;;;;;;6.93;6.25;;;;;;;20.52;58.98;96832.91;10468936;28;20053;-62
2022/08/13 12:13:00;;;;;;;8.45;6.60;;;;;;;20.52;58.91;96828.31;10469323;28;20079;-60
2022/08/13 12:18:20;;;;;;;7.80;6.20;;;;;;;20.51;58.79;96825.91;10469733;28;20049;-62
2022/08/13 12:23:40;;;;;;;6.70;6.00;;;;;;;20.53;58.65;96820.97;10475737;28;20063;-62
2022/08/13 12:28:59;;;;;;;6.80;6.05;;;;;;;20.55;58.96;96819.50;10493630;28;20040;-61
2022/08/13 12:34:18;;;;;;;5.95;5.38;;;;;;;20.58;58.88;96811.84;10469395;28;20048;-62
2022/08/13 12:39:37;;;;;;;6.72;5.55;;;;;;;20.58;59.03;96809.97;10469747;28;20057;-60
2022/08/13 12:44:57;;;;;;;6.03;5.43;;;;;;;20.59;59.20;96808.03;10460366;28;20139;-61
2022/08/13 12:50:19;;;;;;;5.25;4.85;;;;;;;20.61;58.73;96800.41;10471953;28;20661;-61
2022/08/13 12:55:40;;;;;;;8.57;5.38;;;;;;;20.64;58.77;96792.41;10451291;28;20095;-61
2022/08/13 13:01:00;;;;;;;5.40;4.90;;;;;;;20.67;59.09;96786.34;10455242;28;20049;-61
2022/08/13 13:06:20;;;;;;;8.63;5.20;;;;;;;20.69;58.93;96783.31;10462817;28;20053;-60
2022/08/13 13:11:39;;;;;;;5.22;4.72;;;;;;;20.68;58.73;96782.50;10477731;28;20048;-61
2022/08/13 13:16:58;;;;;;;6.70;4.70;;;;;;;20.70;58.60;96780.25;10470343;28;20055;-62
2022/08/13 13:22:18;;;;;;;8.32;5.32;;;;;;;20.69;58.45;96775.97;10467250;28;20397;-60
2022/08/13 13:27:37;;;;;;;7.15;4.65;;;;;;;20.68;58.52;96771.69;10474280;28;20045;-61
2022/08/13 13:32:57;;;;;;;5.60;4.50;;;;;;;20.68;58.86;96768.16;10483573;28;20052;-61
2022/08/13 13:38:18;;;;;;;4.97;4.55;;;;;;;20.70;58.76;96760.53;10474665;28;20052;-61
2022/08/13 13:43:38;;;;;;;4.28;3.88;;;;;;;20.69;58.58;96762.44;10478358;28;20032;-60
2022/08/13 13:48:58;;;;;;;4.88;4.38;;;;;;;20.66;58.54;96763.09;10460533;28;20111;-62
2022/08/13 13:54:19;;;;;;;4.70;4.30;;;;;;;20.66;58.58;96767.72;10473859;28;20053;-62
2022/08/13 13:59:39;;;;;;;4.07;3.78;;;;;;;20.65;58.55;96749.91;10462421;28;20041;-61
2022/08/13 14:04:58;;;;;;;4.43;4.03;;;;;;;20.65;58.73;96760.72;10473340;28;20045;-62
2022/08/13 14:10:18;;;;;;;4.30;3.90;;;;;;;20.66;58.83;96763.09;10475316;28;20041;-62
2022/08/13 14:15:38;;;;;;;4.28;3.97;;;;;;;20.66;59.03;96771.22;10473258;28;20044;-60
2022/08/13 14:20:58;;;;;;;4.60;4.20;;;;;;;20.64;58.62;96765.34;10468544;28;20056;-61
2022/08/13 14:26:20;;;;;;;4.22;3.83;;;;;;;20.63;58.61;96758.34;10475759;28;20053;-62
2022/08/13 14:31:39;;;;;;;4.63;4.22;;;;;;;20.63;58.48;96762.97;10461208;28;20049;-61
2022/08/13 14:37:01;;;;;;;4.80;4.40;;;;;;;20.62;58.44;96750.56;10484372;28;20056;-61
2022/08/13 14:42:28;;;;;;;5.50;4.35;;;;;;;20.62;58.32;96751.38;10469622;28;20041;-61
2022/08/13 14:47:51;;;;;;;4.78;4.38;;;;;;;20.62;58.25;96751.38;10484473;28;20098;-62
2022/08/13 14:53:12;;;;;;;6.15;4.40;;;;;;;20.64;58.41;96742.88;10484041;28;20400;-61
2022/08/13 14:58:31;;;;;;;4.70;4.30;;;;;;;20.66;58.50;96737.94;10494749;28;20045;-61
2022/08/13 15:03:51;;;;;;;4.80;4.40;;;;;;;20.68;58.63;96733.78;10471068;28;20052;-61
2022/08/13 15:09:11;;;;;;;4.95;4.28;;;;;;;20.68;58.62;96728.38;10470567;28;20045;-61
2022/08/13 15:14:31;;;;;;;4.47;4.07;;;;;;;20.68;58.61;96732.97;10474745;28;20041;-61
2022/08/13 15:19:52;;;;;;;4.60;4.20;;;;;;;20.67;58.54;96732.19;10456219;28;20053;-61
2022/08/13 15:25:13;;;;;;;5.78;4.70;;;;;;;20.68;58.51;96730.28;10479705;28;20090;-61
2022/08/13 15:30:34;;;;;;;4.70;4.10;;;;;;;20.68;58.81;96728.38;10478460;28;20056;-61
2022/08/13 15:35:58;;;;;;;4.30;3.90;;;;;;;20.70;59.05;96726.13;10456921;28;20562;-61
2022/08/13 15:41:18;;;;;;;4.05;3.75;;;;;;;20.72;59.17;96723.88;10449758;28;20114;-61
2022/08/13 15:46:37;;;;;;;3.63;3.33;;;;;;;20.73;59.36;96716.53;10469320;28;20048;-57
2022/08/13 15:51:57;;;;;;;3.53;3.22;;;;;;;20.74;59.58;96715.44;10456464;28;20107;-60
2022/08/13 15:57:17;;;;;;;3.30;3.00;;;;;;;20.75;59.64;96717.00;10474266;28;20495;-61
2022/08/13 16:02:37;;;;;;;3.65;2.95;;;;;;;20.73;59.64;96714.63;10456097;28;20075;-61
2022/08/13 16:07:59;;;;;;;2.85;2.65;;;;;;;20.73;59.63;96711.91;10465530;28;20099;-61
2022/08/13 16:13:18;;;;;;;2.97;2.75;;;;;;;20.74;59.86;96707.31;10470828;28;20060;-62
2022/08/13 16:18:38;;;;;;;2.95;2.70;;;;;;;20.77;60.18;96706.63;10465846;28;20075;-59
2022/08/13 16:23:57;;;;;;;3.00;2.80;;;;;;;20.78;60.39;96704.69;10441864;28;20520;-61
2022/08/13 16:29:17;;;;;;;2.72;2.47;;;;;;;20.80;60.62;96708.66;10454536;28;20500;-62
2022/08/13 16:34:38;;;;;;;2.97;2.63;;;;;;;20.83;60.85;96704.50;10481719;28;20037;-61
2022/08/13 16:39:59;;;;;;;2.55;2.35;;;;;;;20.85;60.89;96699.53;10494202;28;20496;-62
2022/08/13 16:45:21;;;;;;;2.72;2.53;;;;;;;20.86;60.89;96706.53;10462351;28;20083;-59
2022/08/13 16:50:45;;;;;;;2.78;2.58;;;;;;;20.85;61.10;96699.53;10462542;28;20057;-60
2022/08/13 16:56:06;;;;;;;2.47;2.28;;;;;;;20.85;60.92;96699.53;10467492;28;20049;-59
2022/08/13 17:01:29;;;;;;;2.83;2.58;;;;;;;20.84;60.69;96695.25;10462413;28;20052;-61
2022/08/13 17:12:27;;;;;;;3.53;2.50;;;;;;;20.88;61.34;96678.00;10463084;28;20049;-62
2022/08/13 17:17:47;;;;;;;5.97;2.60;;;;;;;20.92;61.46;96684.31;10475942;28;20037;-64
2022/08/13 17:23:06;;;;;;;4.65;2.53;;;;;;;20.93;61.46;96690.53;10467483;28;20523;-61
2022/08/13 17:28:29;;;;;;;2.95;2.63;;;;;;;20.94;61.58;96692.13;10461495;28;20057;-62
2022/08/13 17:33:49;;;;;;;3.47;2.60;;;;;;;20.92;61.16;96711.41;10460257;28;20087;-62
2022/08/13 17:39:09;;;;;;;2.55;2.35;;;;;;;20.89;61.16;96712.06;10478594;28;20040;-62
2022/08/13 17:44:28;;;;;;;2.55;2.35;;;;;;;20.88;60.95;96710.50;10461041;28;20059;-59
2022/08/13 17:49:49;;;;;;;3.20;2.90;;;;;;;20.89;60.99;96719.41;10463305;28;20404;-61
2022/08/13 17:55:09;;;;;;;3.55;2.85;;;;;;;20.88;61.16;96712.41;10465034;28;20049;-59
2022/08/13 18:00:30;;;;;;;3.40;3.10;;;;;;;20.87;61.14;96722.44;10474294;28;20037;-60
2022/08/13 18:05:50;;;;;;;2.88;2.63;;;;;;;20.86;61.14;96731.69;10488245;28;20050;-59
2022/08/13 18:11:09;;;;;;;2.60;2.40;;;;;;;20.86;60.98;96733.63;10473332;28;20047;-62
2022/08/13 18:16:30;;;;;;;3.25;2.67;;;;;;;20.85;61.12;96746.34;10480189;28;20123;-59
2022/08/13 18:21:49;;;;;;;2.70;2.50;;;;;;;20.85;61.06;96748.28;10488913;28;20462;-61
2022/08/13 18:27:09;;;;;;;2.92;2.72;;;;;;;20.85;61.33;96756.41;10448840;28;20049;-60
2022/08/13 18:32:29;;;;;;;3.10;2.80;;;;;;;20.83;61.36;96767.56;10459972;28;20052;-59
2022/08/13 18:37:50;;;;;;;3.72;2.78;;;;;;;20.84;61.43;96771.06;10462154;28;20519;-58
2022/08/13 18:43:24;;;;;;;3.38;3.08;;;;;;;20.84;61.58;96776.50;10471835;28;20041;-59
2022/08/13 18:48:43;;;;;;;3.63;3.33;;;;;;;20.83;61.67;96772.97;10471199;28;20052;-57
2022/08/13 18:54:03;;;;;;;3.85;3.10;;;;;;;20.83;61.87;96772.97;10492172;28;20052;-57
2022/08/13 18:59:22;;;;;;;3.17;2.97;;;;;;;20.83;62.16;96772.19;10465609;28;20076;-58
2022/08/13 19:04:42;;;;;;;3.58;3.28;;;;;;;20.83;62.21;96783.00;10478124;28;20048;-55
2022/08/13 19:10:03;;;;;;;3.33;3.03;;;;;;;20.82;62.34;96784.16;10492745;28;20060;-59
2022/08/13 19:15:24;;;;;;;3.33;3.03;;;;;;;20.81;62.91;96785.25;10474122;28;20032;-58
2022/08/13 19:20:43;;;;;;;3.55;3.20;;;;;;;20.80;62.81;96789.13;10484354;28;20493;-59
2022/08/13 19:26:02;;;;;;;3.00;2.80;;;;;;;20.77;62.87;96797.88;10457461;28;20412;-59
2022/08/13 19:31:22;;;;;;;4.25;3.10;;;;;;;20.78;62.98;96791.34;10505773;28;20066;-59
2022/08/13 19:36:41;;;;;;;3.35;3.10;;;;;;;20.78;62.73;96796.75;10476867;28;20049;-55
2022/08/13 19:42:04;;;;;;;3.17;2.95;;;;;;;20.77;62.27;96795.19;10468732;28;20045;-61
2022/08/13 19:47:24;;;;;;;3.17;2.88;;;;;;;20.78;62.06;96799.44;10456246;28;20056;-60
2022/08/13 19:52:44;;;;;;;4.32;3.25;;;;;;;20.80;61.57;96810.78;10480354;28;20102;-60
2022/08/13 19:58:03;;;;;;;3.10;2.80;;;;;;;20.77;61.20;96795.97;10457360;28;20044;-60
2022/08/13 20:03:26;;;;;;;13.35;3.15;;;;;;;20.78;61.07;96800.28;10458966;28;20044;-60
2022/08/13 20:08:45;;;;;;;3.45;3.15;;;;;;;20.78;60.98;96796.75;10455479;28;20049;-60
2022/08/13 20:14:05;;;;;;;3.33;3.08;;;;;;;20.78;60.95;96791.34;10481994;28;20489;-60
2022/08/13 20:19:25;;;;;;;3.55;3.25;;;;;;;20.77;60.77;96785.13;10459383;28;20045;-60
2022/08/13 20:24:44;;;;;;;3.40;3.10;;;;;;;20.78;60.64;96781.31;10462615;28;20064;-60
2022/08/13 20:30:07;;;;;;;3.13;2.75;;;;;;;20.79;60.53;96790.22;10468646;28;20076;-60
2022/08/13 20:35:28;;;;;;;3.38;3.08;;;;;;;20.78;60.39;96788.63;10487068;28;20381;-61
2022/08/13 20:40:49;;;;;;;2.88;2.67;;;;;;;20.79;60.33;96784.81;10495916;28;20048;-60
2022/08/13 20:46:10;;;;;;;3.22;3.03;;;;;;;20.78;60.38;96785.91;10508757;28;20058;-60
2022/08/13 20:51:29;;;;;;;3.30;2.90;;;;;;;20.78;60.34;96785.91;10479053;28;20057;-60
2022/08/13 20:56:49;;;;;;;3.50;3.20;;;;;;;20.78;60.30;96788.63;10455053;28;20041;-59
2022/08/13 21:02:08;;;;;;;3.65;3.35;;;;;;;20.77;60.19;96784.34;10454967;28;20057;-60
2022/08/13 21:07:27;;;;;;;3.28;2.97;;;;;;;20.78;60.21;96775.09;10455381;28;20048;-61
2022/08/13 21:12:49;;;;;;;3.67;3.38;;;;;;;20.79;60.21;96779.41;10457695;28;20500;-60
2022/08/13 21:18:08;;;;;;;3.22;2.92;;;;;;;20.77;60.16;96778.94;10467752;28;20053;-60
2022/08/13 21:23:28;;;;;;;3.30;3.00;;;;;;;20.77;60.10;96774.31;10463896;28;20056;-60
2022/08/13 21:28:47;;;;;;;3.45;3.15;;;;;;;20.78;60.11;96769.66;10461437;28;20048;-60
2022/08/13 21:34:06;;;;;;;3.60;3.30;;;;;;;20.77;59.97;96774.31;10476408;28;20056;-61
2022/08/13 21:39:27;;;;;;;3.85;3.55;;;;;;;20.77;59.97;96765.41;10490366;28;20052;-60
2022/08/13 21:44:48;;;;;;;3.90;3.55;;;;;;;20.77;60.06;96774.31;10481352;28;20767;-60
2022/08/13 21:50:08;;;;;;;4.18;3.78;;;;;;;20.77;60.13;96774.31;10484957;28;20044;-60
2022/08/13 21:55:28;;;;;;;4.00;3.70;;;;;;;20.77;60.22;96768.09;10449307;28;20055;-60
2022/08/13 22:00:48;;;;;;;4.10;3.80;;;;;;;20.76;60.00;96764.63;10495021;28;20040;-60
2022/08/13 22:06:07;;;;;;;3.90;3.60;;;;;;;20.75;60.01;96757.59;10495607;28;20037;-60
2022/08/13 22:11:27;;;;;;;4.30;4.00;;;;;;;20.77;59.92;96754.56;10473178;28;20053;-60
2022/08/13 22:16:47;;;;;;;4.15;3.85;;;;;;;20.76;59.95;96752.97;10476892;28;20045;-60
2022/08/13 22:22:07;;;;;;;4.32;3.92;;;;;;;20.76;59.99;96745.66;10468223;28;20068;-60
2022/08/13 22:27:26;;;;;;;4.25;3.85;;;;;;;20.77;59.92;96749.16;10498675;28;20511;-60
2022/08/13 22:32:46;;;;;;;4.53;4.13;;;;;;;20.76;60.13;96751.06;10499029;28;20059;-61
2022/08/13 22:38:05;;;;;;;4.32;3.90;;;;;;;20.77;60.18;96747.22;10498840;28;20556;-60
2022/08/13 22:43:25;;;;;;;4.68;4.28;;;;;;;20.76;59.99;96734.84;10489986;28;20565;-60
2022/08/13 22:48:44;;;;;;;4.50;4.13;;;;;;;20.76;59.94;96729.41;10483629;28;20052;-60
2022/08/13 22:54:04;;;;;;;4.60;4.20;;;;;;;20.76;59.89;96728.59;10458297;28;20413;-60
2022/08/13 22:59:23;;;;;;;4.97;4.57;;;;;;;20.76;59.83;96721.28;10457285;28;20051;-61
2022/08/13 23:04:43;;;;;;;4.80;4.40;;;;;;;20.77;59.97;96713.97;10465151;28;20067;-60
2022/08/13 23:10:04;;;;;;;4.63;4.22;;;;;;;20.76;60.25;96718.59;10465318;28;20396;-61
2022/08/13 23:15:24;;;;;;;5.05;4.65;;;;;;;20.76;59.94;96718.59;10457299;28;20110;-60
2022/08/13 23:20:45;;;;;;;4.40;4.07;;;;;;;20.76;60.08;96723.19;10452423;28;20049;-60
2022/08/13 23:26:05;;;;;;;4.90;4.50;;;;;;;20.76;59.99;96713.19;10450172;28;20053;-59
2022/08/13 23:31:24;;;;;;;5.07;4.57;;;;;;;20.74;59.93;96713.50;10457655;28;20052;-60
2022/08/13 23:36:44;;;;;;;4.93;4.53;;;;;;;20.76;59.93;96706.94;10451651;28;20049;-60
2022/08/13 23:42:04;;;;;;;5.00;4.60;;;;;;;20.74;59.92;96694.56;10469828;28;20405;-60
2022/08/13 23:47:23;;;;;;;5.32;4.82;;;;;;;20.74;60.00;96694.56;10481736;28;20055;-60
2022/08/13 23:52:43;;;;;;;5.57;5.07;;;;;;;20.74;59.83;96694.56;10460071;28;20049;-60
2022/08/13 23:58:03;;;;;;;5.07;4.68;;;;;;;20.75;59.83;96700.75;10474784;28;20052;-60
